sensor_id;sensor_type;location;lat;lon;timestamp;P1;durP1;ratioP1;P2;durP2;ratioP2
32826;SDS011;51059;42.058;27.986;2023-08-06T00:00:45;13.27;;;11.93;;
32826;SDS011;51059;42.058;27.986;2023-08-06T00:03:12;12.53;;;11.33;;
32826;SDS011;51059;42.058;27.986;2023-08-06T00:05:40;13.00;;;11.70;;
32826;SDS011;51059;42.058;27.986;2023-08-06T00:08:07;13.03;;;11.70;;
32826;SDS011;51059;42.058;27.986;2023-08-06T00:10:33;15.35;;;11.75;;
32826;SDS011;51059;42.058;27.986;2023-08-06T00:12:59;14.38;;;11.25;;
32826;SDS011;51059;42.058;27.986;2023-08-06T00:15:25;13.47;;;11.20;;
32826;SDS011;51059;42.058;27.986;2023-08-06T00:17:51;13.93;;;11.55;;
32826;SDS011;51059;42.058;27.986;2023-08-06T00:20:17;12.35;;;11.07;;
32826;SDS011;51059;42.058;27.986;2023-08-06T00:22:43;12.70;;;11.60;;
32826;SDS011;51059;42.058;27.986;2023-08-06T00:25:09;13.07;;;11.73;;
32826;SDS011;51059;42.058;27.986;2023-08-06T00:27:35;12.87;;;11.40;;
32826;SDS011;51059;42.058;27.986;2023-08-06T00:30:02;12.85;;;11.55;;
32826;SDS011;51059;42.058;27.986;2023-08-06T00:32:28;14.20;;;11.50;;
32826;SDS011;51059;42.058;27.986;2023-08-06T00:34:54;12.52;;;11.32;;
32826;SDS011;51059;42.058;27.986;2023-08-06T00:37:20;12.02;;;10.82;;
32826;SDS011;51059;42.058;27.986;2023-08-06T00:39:46;13.07;;;11.73;;
32826;SDS011;51059;42.058;27.986;2023-08-06T00:42:12;13.50;;;12.10;;
32826;SDS011;51059;42.058;27.986;2023-08-06T00:44:38;13.10;;;11.13;;
32826;SDS011;51059;42.058;27.986;2023-08-06T00:47:06;12.63;;;11.27;;
32826;SDS011;51059;42.058;27.986;2023-08-06T00:49:33;15.65;;;11.90;;
32826;SDS011;51059;42.058;27.986;2023-08-06T00:52:04;13.27;;;11.60;;
32826;SDS011;51059;42.058;27.986;2023-08-06T00:54:32;13.38;;;12.07;;
32826;SDS011;51059;42.058;27.986;2023-08-06T00:57:00;13.05;;;11.70;;
32826;SDS011;51059;42.058;27.986;2023-08-06T00:59:29;12.57;;;11.48;;
32826;SDS011;51059;42.058;27.986;2023-08-06T01:01:56;13.60;;;12.17;;
32826;SDS011;51059;42.058;27.986;2023-08-06T01:04:22;14.15;;;12.65;;
32826;SDS011;51059;42.058;27.986;2023-08-06T01:06:51;15.02;;;13.07;;
32826;SDS011;51059;42.058;27.986;2023-08-06T01:09:49;15.27;;;13.70;;
32826;SDS011;51059;42.058;27.986;2023-08-06T01:15:11;14.02;;;12.48;;
32826;SDS011;51059;42.058;27.986;2023-08-06T01:17:43;13.80;;;10.63;;
32826;SDS011;51059;42.058;27.986;2023-08-06T01:20:10;11.93;;;10.10;;
32826;SDS011;51059;42.058;27.986;2023-08-06T01:22:37;10.52;;;9.50;;
32826;SDS011;51059;42.058;27.986;2023-08-06T01:25:03;13.27;;;9.53;;
32826;SDS011;51059;42.058;27.986;2023-08-06T01:27:31;10.77;;;9.68;;
32826;SDS011;51059;42.058;27.986;2023-08-06T01:30:03;11.05;;;9.43;;
32826;SDS011;51059;42.058;27.986;2023-08-06T01:32:37;14.20;;;10.48;;
32826;SDS011;51059;42.058;27.986;2023-08-06T01:35:10;14.00;;;10.40;;
32826;SDS011;51059;42.058;27.986;2023-08-06T01:37:39;16.38;;;10.25;;
32826;SDS011;51059;42.058;27.986;2023-08-06T01:40:13;11.70;;;10.43;;
32826;SDS011;51059;42.058;27.986;2023-08-06T01:42:39;15.65;;;10.32;;
32826;SDS011;51059;42.058;27.986;2023-08-06T01:45:09;10.85;;;9.63;;
32826;SDS011;51059;42.058;27.986;2023-08-06T01:47:36;11.55;;;9.95;;
32826;SDS011;51059;42.058;27.986;2023-08-06T01:50:03;11.02;;;9.18;;
32826;SDS011;51059;42.058;27.986;2023-08-06T01:52:29;11.90;;;9.20;;
32826;SDS011;51059;42.058;27.986;2023-08-06T01:54:55;9.82;;;8.82;;
32826;SDS011;51059;42.058;27.986;2023-08-06T01:57:21;9.00;;;7.95;;
32826;SDS011;51059;42.058;27.986;2023-08-06T01:59:47;9.07;;;8.10;;
32826;SDS011;51059;42.058;27.986;2023-08-06T02:02:13;9.15;;;7.43;;
32826;SDS011;51059;42.058;27.986;2023-08-06T02:04:38;7.72;;;6.93;;
32826;SDS011;51059;42.058;27.986;2023-08-06T02:07:05;7.97;;;7.25;;
32826;SDS011;51059;42.058;27.986;2023-08-06T02:09:31;6.97;;;6.35;;
32826;SDS011;51059;42.058;27.986;2023-08-06T02:11:57;8.82;;;7.55;;
32826;SDS011;51059;42.058;27.986;2023-08-06T02:14:23;9.18;;;7.57;;
32826;SDS011;51059;42.058;27.986;2023-08-06T02:16:49;8.20;;;7.37;;
32826;SDS011;51059;42.058;27.986;2023-08-06T02:19:15;8.55;;;7.72;;
32826;SDS011;51059;42.058;27.986;2023-08-06T02:21:41;8.40;;;7.60;;
32826;SDS011;51059;42.058;27.986;2023-08-06T02:24:06;7.95;;;7.25;;
32826;SDS011;51059;42.058;27.986;2023-08-06T02:26:32;9.35;;;8.27;;
32826;SDS011;51059;42.058;27.986;2023-08-06T02:28:58;9.13;;;8.27;;
32826;SDS011;51059;42.058;27.986;2023-08-06T02:31:24;8.95;;;8.02;;
32826;SDS011;51059;42.058;27.986;2023-08-06T02:33:50;9.13;;;8.27;;
32826;SDS011;51059;42.058;27.986;2023-08-06T02:36:16;8.75;;;8.05;;
32826;SDS011;51059;42.058;27.986;2023-08-06T02:38:42;8.18;;;7.47;;
32826;SDS011;51059;42.058;27.986;2023-08-06T02:41:08;7.60;;;6.93;;
32826;SDS011;51059;42.058;27.986;2023-08-06T02:43:34;12.38;;;7.47;;
32826;SDS011;51059;42.058;27.986;2023-08-06T02:46:00;7.68;;;7.03;;
32826;SDS011;51059;42.058;27.986;2023-08-06T02:48:26;7.07;;;6.47;;
32826;SDS011;51059;42.058;27.986;2023-08-06T02:50:52;7.18;;;6.57;;
32826;SDS011;51059;42.058;27.986;2023-08-06T02:53:18;7.45;;;6.85;;
32826;SDS011;51059;42.058;27.986;2023-08-06T02:55:47;7.88;;;7.18;;
32826;SDS011;51059;42.058;27.986;2023-08-06T02:58:14;8.15;;;7.38;;
32826;SDS011;51059;42.058;27.986;2023-08-06T03:00:41;8.70;;;7.88;;
32826;SDS011;51059;42.058;27.986;2023-08-06T03:03:08;11.15;;;8.90;;
32826;SDS011;51059;42.058;27.986;2023-08-06T03:05:34;10.10;;;9.00;;
32826;SDS011;51059;42.058;27.986;2023-08-06T03:08:00;9.77;;;8.77;;
32826;SDS011;51059;42.058;27.986;2023-08-06T03:10:26;10.25;;;9.35;;
32826;SDS011;51059;42.058;27.986;2023-08-06T03:12:52;9.27;;;8.30;;
32826;SDS011;51059;42.058;27.986;2023-08-06T03:15:18;9.10;;;8.23;;
32826;SDS011;51059;42.058;27.986;2023-08-06T03:17:45;10.98;;;9.18;;
32826;SDS011;51059;42.058;27.986;2023-08-06T03:20:11;10.18;;;9.15;;
32826;SDS011;51059;42.058;27.986;2023-08-06T03:22:37;10.35;;;9.20;;
32826;SDS011;51059;42.058;27.986;2023-08-06T03:25:04;9.52;;;8.50;;
32826;SDS011;51059;42.058;27.986;2023-08-06T03:27:30;9.45;;;8.55;;
32826;SDS011;51059;42.058;27.986;2023-08-06T03:29:56;9.93;;;8.90;;
32826;SDS011;51059;42.058;27.986;2023-08-06T03:32:22;9.35;;;8.55;;
32826;SDS011;51059;42.058;27.986;2023-08-06T03:34:48;8.90;;;8.00;;
32826;SDS011;51059;42.058;27.986;2023-08-06T03:37:14;8.55;;;7.45;;
32826;SDS011;51059;42.058;27.986;2023-08-06T03:39:40;10.68;;;9.10;;
32826;SDS011;51059;42.058;27.986;2023-08-06T03:42:06;9.85;;;8.93;;
32826;SDS011;51059;42.058;27.986;2023-08-06T03:44:32;11.80;;;8.60;;
32826;SDS011;51059;42.058;27.986;2023-08-06T03:46:58;9.77;;;8.02;;
32826;SDS011;51059;42.058;27.986;2023-08-06T03:49:23;7.95;;;7.25;;
32826;SDS011;51059;42.058;27.986;2023-08-06T03:51:49;9.00;;;8.18;;
32826;SDS011;51059;42.058;27.986;2023-08-06T03:54:15;8.45;;;7.63;;
32826;SDS011;51059;42.058;27.986;2023-08-06T03:56:42;8.02;;;7.22;;
32826;SDS011;51059;42.058;27.986;2023-08-06T03:59:08;8.18;;;7.32;;
32826;SDS011;51059;42.058;27.986;2023-08-06T04:01:34;7.88;;;7.07;;
32826;SDS011;51059;42.058;27.986;2023-08-06T04:03:59;8.88;;;7.00;;
32826;SDS011;51059;42.058;27.986;2023-08-06T04:06:25;10.70;;;6.93;;
32826;SDS011;51059;42.058;27.986;2023-08-06T04:08:51;9.00;;;6.40;;
32826;SDS011;51059;42.058;27.986;2023-08-06T04:11:17;9.13;;;6.40;;
32826;SDS011;51059;42.058;27.986;2023-08-06T04:13:43;10.65;;;6.40;;
32826;SDS011;51059;42.058;27.986;2023-08-06T04:16:10;5.63;;;5.00;;
32826;SDS011;51059;42.058;27.986;2023-08-06T04:18:36;8.80;;;6.97;;
32826;SDS011;51059;42.058;27.986;2023-08-06T04:21:02;8.75;;;5.80;;
32826;SDS011;51059;42.058;27.986;2023-08-06T04:23:28;8.43;;;5.93;;
32826;SDS011;51059;42.058;27.986;2023-08-06T04:26:03;11.35;;;5.80;;
32826;SDS011;51059;42.058;27.986;2023-08-06T04:28:29;8.90;;;5.53;;
32826;SDS011;51059;42.058;27.986;2023-08-06T04:30:55;6.45;;;5.70;;
32826;SDS011;51059;42.058;27.986;2023-08-06T04:33:21;8.88;;;6.18;;
32826;SDS011;51059;42.058;27.986;2023-08-06T04:35:53;9.82;;;5.80;;
32826;SDS011;51059;42.058;27.986;2023-08-06T04:38:27;9.55;;;5.47;;
32826;SDS011;51059;42.058;27.986;2023-08-06T04:40:53;11.60;;;5.20;;
32826;SDS011;51059;42.058;27.986;2023-08-06T04:43:19;10.82;;;5.68;;
32826;SDS011;51059;42.058;27.986;2023-08-06T04:45:49;15.18;;;5.88;;
32826;SDS011;51059;42.058;27.986;2023-08-06T04:48:15;12.32;;;5.85;;
32826;SDS011;51059;42.058;27.986;2023-08-06T04:50:45;10.20;;;5.82;;
32826;SDS011;51059;42.058;27.986;2023-08-06T04:53:14;10.77;;;5.38;;
32826;SDS011;51059;42.058;27.986;2023-08-06T04:55:46;15.57;;;6.00;;
32826;SDS011;51059;42.058;27.986;2023-08-06T04:58:13;14.80;;;6.65;;
32826;SDS011;51059;42.058;27.986;2023-08-06T05:00:38;18.88;;;6.80;;
32826;SDS011;51059;42.058;27.986;2023-08-06T05:03:05;14.25;;;6.47;;
32826;SDS011;51059;42.058;27.986;2023-08-06T05:05:31;21.70;;;7.53;;
32826;SDS011;51059;42.058;27.986;2023-08-06T05:07:57;18.85;;;6.32;;
32826;SDS011;51059;42.058;27.986;2023-08-06T05:10:27;13.13;;;6.32;;
32826;SDS011;51059;42.058;27.986;2023-08-06T05:13:09;13.98;;;6.47;;
32826;SDS011;51059;42.058;27.986;2023-08-06T05:15:36;8.50;;;5.85;;
32826;SDS011;51059;42.058;27.986;2023-08-06T05:18:02;14.18;;;7.40;;
32826;SDS011;51059;42.058;27.986;2023-08-06T05:20:29;15.13;;;6.75;;
32826;SDS011;51059;42.058;27.986;2023-08-06T05:22:56;11.20;;;6.35;;
32826;SDS011;51059;42.058;27.986;2023-08-06T05:25:22;9.80;;;5.38;;
32826;SDS011;51059;42.058;27.986;2023-08-06T05:27:48;10.27;;;6.68;;
32826;SDS011;51059;42.058;27.986;2023-08-06T05:30:19;9.57;;;6.40;;
32826;SDS011;51059;42.058;27.986;2023-08-06T05:32:51;19.40;;;6.30;;
32826;SDS011;51059;42.058;27.986;2023-08-06T05:35:17;16.48;;;6.25;;
32826;SDS011;51059;42.058;27.986;2023-08-06T05:37:44;9.77;;;6.22;;
32826;SDS011;51059;42.058;27.986;2023-08-06T05:40:12;12.07;;;6.07;;
32826;SDS011;51059;42.058;27.986;2023-08-06T05:42:40;16.40;;;6.45;;
32826;SDS011;51059;42.058;27.986;2023-08-06T05:45:08;12.68;;;6.13;;
32826;SDS011;51059;42.058;27.986;2023-08-06T05:47:36;12.60;;;6.35;;
32826;SDS011;51059;42.058;27.986;2023-08-06T05:50:03;8.00;;;6.10;;
32826;SDS011;51059;42.058;27.986;2023-08-06T05:52:29;8.93;;;6.22;;
32826;SDS011;51059;42.058;27.986;2023-08-06T05:54:56;14.45;;;6.70;;
32826;SDS011;51059;42.058;27.986;2023-08-06T05:57:23;13.00;;;7.38;;
32826;SDS011;51059;42.058;27.986;2023-08-06T05:59:49;11.15;;;8.05;;
32826;SDS011;51059;42.058;27.986;2023-08-06T06:02:15;12.45;;;7.82;;
32826;SDS011;51059;42.058;27.986;2023-08-06T06:04:41;14.10;;;7.57;;
32826;SDS011;51059;42.058;27.986;2023-08-06T06:07:07;11.40;;;7.30;;
32826;SDS011;51059;42.058;27.986;2023-08-06T06:09:42;13.35;;;7.60;;
32826;SDS011;51059;42.058;27.986;2023-08-06T06:12:14;13.95;;;8.23;;
32826;SDS011;51059;42.058;27.986;2023-08-06T06:14:43;16.40;;;8.15;;
32826;SDS011;51059;42.058;27.986;2023-08-06T06:17:11;12.32;;;7.43;;
32826;SDS011;51059;42.058;27.986;2023-08-06T06:19:37;12.60;;;7.88;;
32826;SDS011;51059;42.058;27.986;2023-08-06T06:22:03;21.08;;;7.78;;
32826;SDS011;51059;42.058;27.986;2023-08-06T06:24:29;13.27;;;8.18;;
32826;SDS011;51059;42.058;27.986;2023-08-06T06:26:55;17.15;;;8.38;;
32826;SDS011;51059;42.058;27.986;2023-08-06T06:29:21;14.55;;;8.55;;
32826;SDS011;51059;42.058;27.986;2023-08-06T06:31:47;14.90;;;8.55;;
32826;SDS011;51059;42.058;27.986;2023-08-06T06:34:13;19.05;;;8.02;;
32826;SDS011;51059;42.058;27.986;2023-08-06T06:36:41;19.75;;;8.73;;
32826;SDS011;51059;42.058;27.986;2023-08-06T06:39:07;12.90;;;8.65;;
32826;SDS011;51059;42.058;27.986;2023-08-06T06:41:33;15.70;;;8.00;;
32826;SDS011;51059;42.058;27.986;2023-08-06T06:43:59;17.58;;;8.55;;
32826;SDS011;51059;42.058;27.986;2023-08-06T06:46:24;14.23;;;10.15;;
32826;SDS011;51059;42.058;27.986;2023-08-06T06:48:50;10.55;;;8.30;;
32826;SDS011;51059;42.058;27.986;2023-08-06T06:51:18;15.65;;;9.38;;
32826;SDS011;51059;42.058;27.986;2023-08-06T06:53:44;16.10;;;8.40;;
32826;SDS011;51059;42.058;27.986;2023-08-06T06:56:10;14.82;;;8.82;;
32826;SDS011;51059;42.058;27.986;2023-08-06T06:58:36;10.90;;;8.48;;
32826;SDS011;51059;42.058;27.986;2023-08-06T07:01:04;15.18;;;9.07;;
32826;SDS011;51059;42.058;27.986;2023-08-06T07:03:30;13.35;;;8.35;;
32826;SDS011;51059;42.058;27.986;2023-08-06T07:05:59;11.43;;;8.27;;
32826;SDS011;51059;42.058;27.986;2023-08-06T07:08:25;20.20;;;8.85;;
32826;SDS011;51059;42.058;27.986;2023-08-06T07:11:02;16.92;;;9.00;;
32826;SDS011;51059;42.058;27.986;2023-08-06T07:13:29;17.42;;;9.52;;
32826;SDS011;51059;42.058;27.986;2023-08-06T07:15:55;16.88;;;9.32;;
32826;SDS011;51059;42.058;27.986;2023-08-06T07:18:21;12.70;;;9.20;;
32826;SDS011;51059;42.058;27.986;2023-08-06T07:20:48;14.07;;;8.85;;
32826;SDS011;51059;42.058;27.986;2023-08-06T07:23:18;20.55;;;9.05;;
32826;SDS011;51059;42.058;27.986;2023-08-06T07:25:46;19.15;;;10.38;;
32826;SDS011;51059;42.058;27.986;2023-08-06T07:28:14;16.42;;;9.70;;
32826;SDS011;51059;42.058;27.986;2023-08-06T07:30:41;13.95;;;9.77;;
32826;SDS011;51059;42.058;27.986;2023-08-06T07:33:07;17.33;;;9.20;;
32826;SDS011;51059;42.058;27.986;2023-08-06T07:35:33;13.98;;;9.52;;
32826;SDS011;51059;42.058;27.986;2023-08-06T07:37:59;15.82;;;9.18;;
32826;SDS011;51059;42.058;27.986;2023-08-06T07:40:25;15.13;;;9.73;;
32826;SDS011;51059;42.058;27.986;2023-08-06T07:42:51;16.13;;;9.30;;
32826;SDS011;51059;42.058;27.986;2023-08-06T07:45:17;14.15;;;9.00;;
32826;SDS011;51059;42.058;27.986;2023-08-06T07:47:44;17.30;;;9.32;;
32826;SDS011;51059;42.058;27.986;2023-08-06T07:50:10;14.85;;;9.80;;
32826;SDS011;51059;42.058;27.986;2023-08-06T07:52:36;17.05;;;9.00;;
32826;SDS011;51059;42.058;27.986;2023-08-06T07:55:02;18.15;;;9.07;;
32826;SDS011;51059;42.058;27.986;2023-08-06T07:57:30;17.85;;;9.27;;
32826;SDS011;51059;42.058;27.986;2023-08-06T07:59:57;13.95;;;8.77;;
32826;SDS011;51059;42.058;27.986;2023-08-06T08:02:24;14.70;;;9.05;;
32826;SDS011;51059;42.058;27.986;2023-08-06T08:04:50;17.58;;;9.55;;
32826;SDS011;51059;42.058;27.986;2023-08-06T08:07:16;19.77;;;9.02;;
32826;SDS011;51059;42.058;27.986;2023-08-06T08:09:42;15.18;;;8.57;;
32826;SDS011;51059;42.058;27.986;2023-08-06T08:12:08;13.48;;;8.95;;
32826;SDS011;51059;42.058;27.986;2023-08-06T08:14:34;16.13;;;8.85;;
32826;SDS011;51059;42.058;27.986;2023-08-06T08:17:01;12.57;;;9.10;;
32826;SDS011;51059;42.058;27.986;2023-08-06T08:19:33;16.52;;;8.52;;
32826;SDS011;51059;42.058;27.986;2023-08-06T08:21:59;20.15;;;9.02;;
32826;SDS011;51059;42.058;27.986;2023-08-06T08:24:25;19.67;;;9.25;;
32826;SDS011;51059;42.058;27.986;2023-08-06T08:26:51;14.60;;;8.93;;
32826;SDS011;51059;42.058;27.986;2023-08-06T08:29:18;13.02;;;8.65;;
32826;SDS011;51059;42.058;27.986;2023-08-06T08:31:45;15.50;;;8.88;;
32826;SDS011;51059;42.058;27.986;2023-08-06T08:34:12;15.93;;;8.77;;
32826;SDS011;51059;42.058;27.986;2023-08-06T08:36:38;13.90;;;8.52;;
32826;SDS011;51059;42.058;27.986;2023-08-06T08:39:04;15.95;;;10.13;;
32826;SDS011;51059;42.058;27.986;2023-08-06T08:41:30;13.35;;;8.32;;
32826;SDS011;51059;42.058;27.986;2023-08-06T08:43:58;16.30;;;9.52;;
32826;SDS011;51059;42.058;27.986;2023-08-06T08:46:31;17.83;;;9.10;;
32826;SDS011;51059;42.058;27.986;2023-08-06T08:49:00;15.10;;;9.10;;
32826;SDS011;51059;42.058;27.986;2023-08-06T08:51:28;19.40;;;9.15;;
32826;SDS011;51059;42.058;27.986;2023-08-06T08:53:54;13.70;;;9.00;;
32826;SDS011;51059;42.058;27.986;2023-08-06T08:56:24;16.55;;;9.07;;
32826;SDS011;51059;42.058;27.986;2023-08-06T08:58:50;20.90;;;15.20;;
32826;SDS011;51059;42.058;27.986;2023-08-06T09:01:18;14.82;;;9.25;;
32826;SDS011;51059;42.058;27.986;2023-08-06T09:03:46;16.23;;;9.25;;
32826;SDS011;51059;42.058;27.986;2023-08-06T09:06:13;18.67;;;8.98;;
32826;SDS011;51059;42.058;27.986;2023-08-06T09:08:47;14.23;;;9.27;;
32826;SDS011;51059;42.058;27.986;2023-08-06T09:11:22;13.85;;;9.85;;
32826;SDS011;51059;42.058;27.986;2023-08-06T09:13:49;14.77;;;9.57;;
32826;SDS011;51059;42.058;27.986;2023-08-06T09:16:15;15.82;;;9.93;;
32826;SDS011;51059;42.058;27.986;2023-08-06T09:18:41;17.25;;;9.40;;
32826;SDS011;51059;42.058;27.986;2023-08-06T09:21:07;11.85;;;9.43;;
32826;SDS011;51059;42.058;27.986;2023-08-06T09:23:40;21.98;;;10.25;;
32826;SDS011;51059;42.058;27.986;2023-08-06T09:26:06;15.20;;;11.10;;
32826;SDS011;51059;42.058;27.986;2023-08-06T09:28:38;18.27;;;11.20;;
32826;SDS011;51059;42.058;27.986;2023-08-06T09:31:05;15.52;;;9.85;;
32826;SDS011;51059;42.058;27.986;2023-08-06T09:33:30;17.60;;;9.75;;
32826;SDS011;51059;42.058;27.986;2023-08-06T09:35:56;21.50;;;10.60;;
32826;SDS011;51059;42.058;27.986;2023-08-06T09:38:24;15.88;;;10.25;;
32826;SDS011;51059;42.058;27.986;2023-08-06T09:40:50;17.60;;;10.23;;
32826;SDS011;51059;42.058;27.986;2023-08-06T09:43:18;17.90;;;10.25;;
32826;SDS011;51059;42.058;27.986;2023-08-06T09:45:44;18.95;;;10.02;;
32826;SDS011;51059;42.058;27.986;2023-08-06T09:48:10;16.30;;;10.18;;
32826;SDS011;51059;42.058;27.986;2023-08-06T09:50:37;21.27;;;10.07;;
32826;SDS011;51059;42.058;27.986;2023-08-06T09:53:05;20.38;;;10.20;;
32826;SDS011;51059;42.058;27.986;2023-08-06T09:55:31;16.17;;;10.63;;
32826;SDS011;51059;42.058;27.986;2023-08-06T09:57:59;15.00;;;10.35;;
32826;SDS011;51059;42.058;27.986;2023-08-06T10:00:24;18.75;;;11.45;;
32826;SDS011;51059;42.058;27.986;2023-08-06T10:02:52;16.48;;;10.93;;
32826;SDS011;51059;42.058;27.986;2023-08-06T10:05:22;20.13;;;11.02;;
32826;SDS011;51059;42.058;27.986;2023-08-06T10:07:49;17.55;;;10.40;;
32826;SDS011;51059;42.058;27.986;2023-08-06T10:10:18;21.05;;;10.55;;
32826;SDS011;51059;42.058;27.986;2023-08-06T10:12:54;14.60;;;10.25;;
32826;SDS011;51059;42.058;27.986;2023-08-06T10:15:23;17.85;;;10.57;;
32826;SDS011;51059;42.058;27.986;2023-08-06T10:17:51;19.00;;;11.40;;
32826;SDS011;51059;42.058;27.986;2023-08-06T10:20:20;16.75;;;11.20;;
32826;SDS011;51059;42.058;27.986;2023-08-06T10:22:59;20.67;;;11.50;;
32826;SDS011;51059;42.058;27.986;2023-08-06T10:25:32;21.27;;;11.40;;
32826;SDS011;51059;42.058;27.986;2023-08-06T10:27:59;16.30;;;11.23;;
32826;SDS011;51059;42.058;27.986;2023-08-06T10:30:26;19.65;;;11.43;;
32826;SDS011;51059;42.058;27.986;2023-08-06T10:32:58;20.40;;;11.73;;
32826;SDS011;51059;42.058;27.986;2023-08-06T10:38:12;15.95;;;10.90;;
32826;SDS011;51059;42.058;27.986;2023-08-06T10:43:27;16.10;;;12.13;;
32826;SDS011;51059;42.058;27.986;2023-08-06T10:45:55;16.20;;;11.82;;
32826;SDS011;51059;42.058;27.986;2023-08-06T10:48:34;17.73;;;12.77;;
32826;SDS011;51059;42.058;27.986;2023-08-06T10:51:01;20.60;;;13.30;;
32826;SDS011;51059;42.058;27.986;2023-08-06T10:53:30;20.15;;;14.25;;
32826;SDS011;51059;42.058;27.986;2023-08-06T10:55:55;23.08;;;14.02;;
32826;SDS011;51059;42.058;27.986;2023-08-06T10:58:21;22.45;;;13.95;;
32826;SDS011;51059;42.058;27.986;2023-08-06T11:00:50;29.85;;;14.13;;
32826;SDS011;51059;42.058;27.986;2023-08-06T11:03:16;25.15;;;13.88;;
32826;SDS011;51059;42.058;27.986;2023-08-06T11:05:48;21.13;;;13.82;;
32826;SDS011;51059;42.058;27.986;2023-08-06T11:08:36;22.45;;;13.65;;
32826;SDS011;51059;42.058;27.986;2023-08-06T11:11:08;22.35;;;14.00;;
32826;SDS011;51059;42.058;27.986;2023-08-06T11:13:36;21.65;;;14.07;;
32826;SDS011;51059;42.058;27.986;2023-08-06T11:16:05;21.73;;;14.50;;
32826;SDS011;51059;42.058;27.986;2023-08-06T11:18:32;25.48;;;15.10;;
32826;SDS011;51059;42.058;27.986;2023-08-06T11:20:59;20.17;;;15.75;;
32826;SDS011;51059;42.058;27.986;2023-08-06T11:23:29;23.40;;;15.82;;
32826;SDS011;51059;42.058;27.986;2023-08-06T11:25:55;22.73;;;15.10;;
32826;SDS011;51059;42.058;27.986;2023-08-06T11:28:22;18.95;;;14.68;;
32826;SDS011;51059;42.058;27.986;2023-08-06T11:30:48;16.35;;;14.35;;
32826;SDS011;51059;42.058;27.986;2023-08-06T11:33:14;22.52;;;14.57;;
32826;SDS011;51059;42.058;27.986;2023-08-06T11:35:45;20.55;;;15.02;;
32826;SDS011;51059;42.058;27.986;2023-08-06T11:38:13;19.05;;;14.70;;
32826;SDS011;51059;42.058;27.986;2023-08-06T11:40:39;22.15;;;15.07;;
32826;SDS011;51059;42.058;27.986;2023-08-06T11:43:09;23.70;;;15.45;;
32826;SDS011;51059;42.058;27.986;2023-08-06T11:45:35;24.73;;;15.80;;
32826;SDS011;51059;42.058;27.986;2023-08-06T11:48:01;21.80;;;14.63;;
32826;SDS011;51059;42.058;27.986;2023-08-06T11:50:28;16.30;;;10.23;;
32826;SDS011;51059;42.058;27.986;2023-08-06T11:53:00;17.67;;;6.85;;
32826;SDS011;51059;42.058;27.986;2023-08-06T11:55:27;10.20;;;6.13;;
32826;SDS011;51059;42.058;27.986;2023-08-06T11:57:54;9.52;;;5.60;;
32826;SDS011;51059;42.058;27.986;2023-08-06T12:00:22;11.98;;;4.90;;
32826;SDS011;51059;42.058;27.986;2023-08-06T12:02:51;10.27;;;4.90;;
32826;SDS011;51059;42.058;27.986;2023-08-06T12:05:19;12.80;;;5.43;;
32826;SDS011;51059;42.058;27.986;2023-08-06T12:07:58;9.60;;;5.25;;
32826;SDS011;51059;42.058;27.986;2023-08-06T12:10:26;9.07;;;4.95;;
32826;SDS011;51059;42.058;27.986;2023-08-06T12:12:54;12.10;;;4.93;;
32826;SDS011;51059;42.058;27.986;2023-08-06T12:15:21;14.23;;;5.10;;
32826;SDS011;51059;42.058;27.986;2023-08-06T12:17:49;10.50;;;4.80;;
32826;SDS011;51059;42.058;27.986;2023-08-06T12:20:15;11.50;;;5.00;;
32826;SDS011;51059;42.058;27.986;2023-08-06T12:22:41;9.70;;;4.65;;
32826;SDS011;51059;42.058;27.986;2023-08-06T12:25:08;5.15;;;3.70;;
32826;SDS011;51059;42.058;27.986;2023-08-06T12:27:41;8.15;;;5.63;;
32826;SDS011;51059;42.058;27.986;2023-08-06T12:30:10;9.85;;;5.18;;
32826;SDS011;51059;42.058;27.986;2023-08-06T12:32:37;6.22;;;3.60;;
32826;SDS011;51059;42.058;27.986;2023-08-06T12:35:03;7.95;;;4.45;;
32826;SDS011;51059;42.058;27.986;2023-08-06T12:37:30;9.10;;;4.15;;
32826;SDS011;51059;42.058;27.986;2023-08-06T12:39:56;9.13;;;3.80;;
32826;SDS011;51059;42.058;27.986;2023-08-06T12:42:22;15.88;;;4.43;;
32826;SDS011;51059;42.058;27.986;2023-08-06T12:44:49;14.50;;;4.80;;
32826;SDS011;51059;42.058;27.986;2023-08-06T12:47:17;17.63;;;5.10;;
32826;SDS011;51059;42.058;27.986;2023-08-06T12:49:43;18.05;;;5.70;;
32826;SDS011;51059;42.058;27.986;2023-08-06T12:52:09;18.02;;;5.90;;
32826;SDS011;51059;42.058;27.986;2023-08-06T12:54:37;24.48;;;6.68;;
32826;SDS011;51059;42.058;27.986;2023-08-06T12:57:03;31.13;;;8.05;;
32826;SDS011;51059;42.058;27.986;2023-08-06T12:59:29;24.45;;;6.93;;
32826;SDS011;51059;42.058;27.986;2023-08-06T13:01:57;19.30;;;6.93;;
32826;SDS011;51059;42.058;27.986;2023-08-06T13:04:23;23.52;;;6.95;;
32826;SDS011;51059;42.058;27.986;2023-08-06T13:06:49;25.45;;;6.57;;
32826;SDS011;51059;42.058;27.986;2023-08-06T13:09:15;19.80;;;7.03;;
32826;SDS011;51059;42.058;27.986;2023-08-06T13:11:42;24.15;;;6.75;;
32826;SDS011;51059;42.058;27.986;2023-08-06T13:14:13;24.60;;;6.82;;
32826;SDS011;51059;42.058;27.986;2023-08-06T13:16:41;22.85;;;6.75;;
32826;SDS011;51059;42.058;27.986;2023-08-06T13:19:08;22.88;;;6.72;;
32826;SDS011;51059;42.058;27.986;2023-08-06T13:21:35;14.40;;;5.63;;
32826;SDS011;51059;42.058;27.986;2023-08-06T13:24:24;13.85;;;5.32;;
32826;SDS011;51059;42.058;27.986;2023-08-06T13:26:50;11.45;;;5.50;;
32826;SDS011;51059;42.058;27.986;2023-08-06T13:29:16;17.25;;;5.70;;
32826;SDS011;51059;42.058;27.986;2023-08-06T13:31:42;21.20;;;6.18;;
32826;SDS011;51059;42.058;27.986;2023-08-06T13:34:08;15.23;;;5.75;;
32826;SDS011;51059;42.058;27.986;2023-08-06T13:36:34;21.63;;;5.70;;
32826;SDS011;51059;42.058;27.986;2023-08-06T13:39:00;13.77;;;5.05;;
32826;SDS011;51059;42.058;27.986;2023-08-06T13:41:26;17.80;;;5.13;;
32826;SDS011;51059;42.058;27.986;2023-08-06T13:43:52;13.45;;;5.15;;
32826;SDS011;51059;42.058;27.986;2023-08-06T13:46:18;12.05;;;4.90;;
32826;SDS011;51059;42.058;27.986;2023-08-06T13:48:45;18.75;;;5.30;;
32826;SDS011;51059;42.058;27.986;2023-08-06T13:51:12;13.20;;;5.80;;
32826;SDS011;51059;42.058;27.986;2023-08-06T13:53:41;17.05;;;5.43;;
32826;SDS011;51059;42.058;27.986;2023-08-06T13:56:08;15.48;;;5.30;;
32826;SDS011;51059;42.058;27.986;2023-08-06T13:58:41;14.10;;;5.20;;
32826;SDS011;51059;42.058;27.986;2023-08-06T14:01:09;9.52;;;5.50;;
32826;SDS011;51059;42.058;27.986;2023-08-06T14:03:35;14.05;;;5.80;;
32826;SDS011;51059;42.058;27.986;2023-08-06T14:06:03;13.77;;;5.90;;
32826;SDS011;51059;42.058;27.986;2023-08-06T14:08:29;12.85;;;5.95;;
32826;SDS011;51059;42.058;27.986;2023-08-06T14:10:55;11.95;;;5.38;;
32826;SDS011;51059;42.058;27.986;2023-08-06T14:13:21;16.45;;;5.60;;
32826;SDS011;51059;42.058;27.986;2023-08-06T14:15:47;10.77;;;5.00;;
32826;SDS011;51059;42.058;27.986;2023-08-06T14:18:14;14.27;;;5.10;;
32826;SDS011;51059;42.058;27.986;2023-08-06T14:20:41;15.60;;;5.72;;
32826;SDS011;51059;42.058;27.986;2023-08-06T14:23:07;10.32;;;5.50;;
32826;SDS011;51059;42.058;27.986;2023-08-06T14:25:33;16.55;;;5.38;;
32826;SDS011;51059;42.058;27.986;2023-08-06T14:27:59;19.30;;;5.75;;
32826;SDS011;51059;42.058;27.986;2023-08-06T14:30:25;11.15;;;5.22;;